• Join FlightAware (Why Join?)
  • Login
  • US Flag 
12:00PM EDT


 

Airport Tracker/Info


-or-


 

Live Flight TrackerFlight Track Log ✈ DAL5846 ✈ 16-May-2013 ✈ KMCI - KMSP

Flight Track Log - Related Links

Times and Time Zones

All times are in EDT time to prevent confusion due to time zone crossing. See the DAL5846 flight status page for this flight to view local times or setup timezone preferences in your user account.

Time Position Orientation Groundspeed Altitude Reporting Facility
EDT Latitude Longitude Course Direction KTS MPH feet Rate Location/Type
08:33PM 39.2833 -94.7167 180° South 145 167 1,800  Level Kansas City TRACON
08:34PM 39.2500 -94.7167 180° South 174 200 2,800 1,860 Climbing Kansas City TRACON
08:35PM 39.1994 -94.6969 163° South 222 255 5,300 2,640 Climbing Kansas City Center
08:36PM 39.2564 -94.6256 44° Northeast 273 314 8,400 2,520 Climbing Kansas City Center
08:37PM 39.3164 -94.5681 37° Northeast 281 323 10,600 2,460 Climbing Kansas City Center
08:38PM 39.4008 -94.4875 36° Northeast 334 384 13,500 2,400 Climbing Kansas City Center
08:39PM 39.4808 -94.4258 31° Northeast 351 404 15,600 2,100 Climbing Kansas City Center
08:40PM 39.5842 -94.3614 26° Northeast 370 426 17,900 2,100 Climbing Kansas City Center
08:41PM 39.6764 -94.3028 26° Northeast 384 442 20,000 1,980 Climbing Kansas City Center
08:42PM 39.7861 -94.2331 26° Northeast 394 453 22,100 1,800 Climbing Kansas City Center
08:43PM 39.8850 -94.1728 25° Northeast 408 470 23,800 1,680 Climbing Kansas City Center
08:44PM 40.0092 -94.1200 18° North 418 481 25,600 1,500 Climbing Kansas City Center
08:45PM 40.1208 -94.0919 11° North 427 491 27,000 1,200 Climbing Kansas City Center
08:46PM 40.2339 -94.0608 12° North 430 495 28,200 1,200 Climbing Kansas City Center
08:47PM 40.3783 -94.0231 11° North 439 505 29,600 1,140 Climbing Kansas City Center
08:48PM 40.4992 -93.9919 11° North 443 510 30,600 960 Climbing Kansas City Center
08:49PM 40.6156 -93.9244 24° Northeast 459 528 31,600 960 Climbing Kansas City Center
08:50PM 40.7236 -93.8428 30° Northeast 454 522 32,700 900 Climbing Kansas City Center
08:51PM 40.7906 -93.7931 29° Northeast 453 521 33,000 360 Climbing Chicago Center
08:51PM 40.8119 -93.7778 28° Northeast 457 526 33,000  Level Minneapolis Center
08:52PM 40.9233 -93.6906 31° Northeast 460 529 33,000  Level Minneapolis Center
08:53PM 41.0356 -93.6058 30° Northeast 465 535 33,000  Level Minneapolis Center
08:54PM 41.1728 -93.5000 30° Northeast 472 543 33,000  Level Minneapolis Center
08:55PM 41.2867 -93.4097 31° Northeast 476 548 33,000  Level Minneapolis Center
08:56PM 41.4003 -93.3217 30° Northeast 475 547 33,000  Level Minneapolis Center
08:57PM 41.5142 -93.2328 30° Northeast 475 547 33,000  Level Minneapolis Center
08:58PM 41.6292 -93.1428 30° Northeast 480 552 33,000  Level Minneapolis Center
08:59PM 41.7669 -93.0333 31° Northeast 482 555 33,000  Level Minneapolis Center
09:00PM 41.8814 -92.9425 31° Northeast 482 555 33,000  Level Minneapolis Center
09:01PM 41.9947 -92.8528 30° Northeast 475 547 33,000  Level Minneapolis Center
09:02PM 42.1092 -92.7608 31° Northeast 478 550 33,000  Level Minneapolis Center
09:03PM 42.2236 -92.6711 30° Northeast 480 552 33,000 -180 Level Minneapolis Center
09:04PM 42.3342 -92.5800 31° Northeast 476 548 32,700 -540 Descending Minneapolis Center
09:05PM 42.4683 -92.4725 31° Northeast 473 544 32,000 -360 Descending Minneapolis Center
09:07PM 42.5914 -92.4558 North 455 524 32,000  Level Minneapolis Center
09:08PM 42.7008 -92.5311 333° Northwest 443 510 32,000  Level Minneapolis Center
09:09PM 42.8019 -92.6261 325° Northwest 443 510 32,000  Level Minneapolis Center
09:10PM 42.9044 -92.7208 326° Northwest 446 513 32,000 -420 Level Minneapolis Center
09:11PM 43.0267 -92.8333 326° Northwest 444 511 31,200 -780 Descending Minneapolis Center
09:12PM 43.1239 -92.9231 326° Northwest 428 493 30,400 -1,200 Descending Minneapolis Center
09:13PM 43.2239 -93.0119 327° Northwest 431 496 28,800 -1,260 Descending Minneapolis Center
09:14PM 43.3442 -93.0481 348° North 442 509 27,800 -900 Descending Minneapolis Center
09:15PM 43.4664 -93.0711 352° North 444 511 27,000 -1,860 Descending Minneapolis Center
09:16PM 43.6086 -93.1006 351° North 436 502 24,000 -2,760 Descending Minneapolis Center
09:17PM 43.7231 -93.1228 352° North 424 488 21,400 -2,520 Descending Minneapolis Center
09:18PM 43.8308 -93.1439 352° North 413 475 18,800 -2,460 Descending Minneapolis Center
09:19PM 43.9403 -93.1633 353° North 401 461 16,400 -2,520 Descending Minneapolis Center
09:20PM 44.0647 -93.1892 352° North 383 441 13,600 -2,460 Descending Minneapolis Center
09:21PM 44.1642 -93.2078 352° North 363 418 11,300 -1,800 Descending Minneapolis Center
09:22PM 44.2622 -93.2194 355° North 357 411 10,000 -660 Descending Minneapolis Center
09:23PM 44.3572 -93.2075 North 343 395 10,000  Level Minneapolis Center
09:24PM 44.4397 -93.1997 North 302 348 10,000  Level Minneapolis Center
09:25PM 44.5233 -93.1914 North 302 348 10,000  Level Minneapolis Center
09:26PM 44.6236 -93.1825 North 302 348 10,000 -600 Level Minneapolis Center
09:27PM 44.7014 -93.2253 339° North 299 344 8,800 -1,020 Descending Minneapolis Center
09:28PM 44.7811 -93.2756 336° Northwest 293 337 8,000 -420 Descending Minneapolis Center
09:29PM 44.8294 -93.3361 318° Northwest 247 284 8,000 -300 Level Minneapolis Center
09:30PM 44.8567 -93.4175 295° West 232 267 7,400 -960 Descending Minneapolis Center
09:31PM 44.8803 -93.4939 294° West 216 249 6,100 -720 Descending Minneapolis Center
09:32PM 44.9039 -93.5742 293° West 222 255 6,000 -420 Descending Minneapolis Center
09:33PM 44.9453 -93.6169 324° Northwest 221 254 5,300 -840 Descending Minneapolis Center
09:34PM 44.9550 -93.5333 81° East 185 213 4,300 -780 Descending Minneapolis Center
09:35PM 44.9544 -93.4614 91° East 183 211 3,800 -480 Descending Minneapolis Center
09:36PM 44.9528 -93.3944 92° East 172 198 3,400 -420 Descending Minneapolis Center